logo
Search for airport 
image banner adimage banner adimage banner ad
image banner ad

KMVL - Morrisville-Stowe State

Located in Morrisville, United States

ICAO - MVL, IATA - MVL

Data provided by Airmate  

General information

Coordinates: N44°32'4" W72°36'50"
Elevation is 732 feet MSL.
Magnetic variation is -16° East
View others Airports in Vermont

Operational data

Special qualification required
Current time UTC:
Current local time:
Weather
METAR: KMVL 140454Z AUTO VRB03KT 10SM -RA OVC025 02/00 A2971 RMK AO2 RAE13B16UPB13E16 SLP066 P0001 T00220000 401060011
View NOTAMs / SUP AIP / TFR affecting this airport [VIEW]
Communications frequencies: [VIEW]

Runways:

RWY identifierQFULength (ft)Width (ft)SurfaceLDA (ft)
01358°370075ASPH
19178°370075ASPH

Airport contact information

Address: Morrisville United States

Other aviation service providers

Flight schools

Stowe Soaring

Stowe Soaring
info@stowesoaring.com+1(802)888-7845

Satellite view of KMVL